sensor_id;sensor_type;location;lat;lon;timestamp;P1;durP1;ratioP1;P2;durP2;ratioP2
74158;SDS011;62511;47.970;11.774;2023-06-24T00:02:12;10.60;;;6.32;;
74158;SDS011;62511;47.970;11.774;2023-06-24T00:04:38;24.25;;;12.30;;
74158;SDS011;62511;47.970;11.774;2023-06-24T00:07:04;14.18;;;8.05;;
74158;SDS011;62511;47.970;11.774;2023-06-24T00:11:57;5.95;;;2.70;;
74158;SDS011;62511;47.970;11.774;2023-06-24T00:14:24;2.10;;;1.73;;
74158;SDS011;62511;47.970;11.774;2023-06-24T00:16:51;2.58;;;1.52;;
74158;SDS011;62511;47.970;11.774;2023-06-24T00:19:18;2.85;;;1.88;;
74158;SDS011;62511;47.970;11.774;2023-06-24T00:24:10;2.20;;;1.40;;
74158;SDS011;62511;47.970;11.774;2023-06-24T00:26:36;2.58;;;1.95;;
74158;SDS011;62511;47.970;11.774;2023-06-24T00:29:02;2.35;;;1.73;;
74158;SDS011;62511;47.970;11.774;2023-06-24T00:31:28;2.90;;;1.73;;
74158;SDS011;62511;47.970;11.774;2023-06-24T00:33:54;2.83;;;1.83;;
74158;SDS011;62511;47.970;11.774;2023-06-24T00:36:20;3.80;;;2.00;;
74158;SDS011;62511;47.970;11.774;2023-06-24T00:38:46;3.30;;;1.85;;
74158;SDS011;62511;47.970;11.774;2023-06-24T00:41:14;2.55;;;1.80;;
74158;SDS011;62511;47.970;11.774;2023-06-24T00:43:42;2.58;;;1.73;;
74158;SDS011;62511;47.970;11.774;2023-06-24T00:46:08;2.55;;;2.05;;
74158;SDS011;62511;47.970;11.774;2023-06-24T00:48:34;2.67;;;1.80;;
74158;SDS011;62511;47.970;11.774;2023-06-24T00:51:00;5.00;;;2.35;;
74158;SDS011;62511;47.970;11.774;2023-06-24T00:53:26;2.58;;;1.88;;
74158;SDS011;62511;47.970;11.774;2023-06-24T00:55:53;3.42;;;2.05;;
74158;SDS011;62511;47.970;11.774;2023-06-24T00:58:19;2.67;;;1.52;;
74158;SDS011;62511;47.970;11.774;2023-06-24T01:00:46;3.75;;;1.88;;
74158;SDS011;62511;47.970;11.774;2023-06-24T01:03:13;2.85;;;1.60;;
74158;SDS011;62511;47.970;11.774;2023-06-24T01:05:41;3.47;;;1.80;;
74158;SDS011;62511;47.970;11.774;2023-06-24T01:08:07;6.25;;;2.20;;
74158;SDS011;62511;47.970;11.774;2023-06-24T01:10:33;2.85;;;1.67;;
74158;SDS011;62511;47.970;11.774;2023-06-24T01:12:59;4.55;;;1.77;;
74158;SDS011;62511;47.970;11.774;2023-06-24T01:15:25;2.90;;;1.80;;
74158;SDS011;62511;47.970;11.774;2023-06-24T01:21:16;2.17;;;1.98;;
74158;SDS011;62511;47.970;11.774;2023-06-24T01:34:08;3.05;;;2.05;;
74158;SDS011;62511;47.970;11.774;2023-06-24T01:36:37;2.85;;;1.75;;
74158;SDS011;62511;47.970;11.774;2023-06-24T01:39:05;3.78;;;2.20;;
74158;SDS011;62511;47.970;11.774;2023-06-24T01:41:34;3.38;;;1.80;;
74158;SDS011;62511;47.970;11.774;2023-06-24T01:44:01;3.72;;;2.17;;
74158;SDS011;62511;47.970;11.774;2023-06-24T01:46:28;4.40;;;2.10;;
74158;SDS011;62511;47.970;11.774;2023-06-24T01:48:55;5.32;;;2.33;;
74158;SDS011;62511;47.970;11.774;2023-06-24T01:51:23;3.53;;;2.13;;
74158;SDS011;62511;47.970;11.774;2023-06-24T01:53:51;3.33;;;2.10;;
74158;SDS011;62511;47.970;11.774;2023-06-24T01:56:18;3.70;;;2.28;;
74158;SDS011;62511;47.970;11.774;2023-06-24T01:58:45;3.92;;;2.15;;
74158;SDS011;62511;47.970;11.774;2023-06-24T02:01:11;3.40;;;2.20;;
74158;SDS011;62511;47.970;11.774;2023-06-24T02:03:38;2.97;;;2.15;;
74158;SDS011;62511;47.970;11.774;2023-06-24T02:06:05;5.30;;;2.28;;
74158;SDS011;62511;47.970;11.774;2023-06-24T02:08:32;3.45;;;2.25;;
74158;SDS011;62511;47.970;11.774;2023-06-24T02:10:59;4.45;;;2.50;;
74158;SDS011;62511;47.970;11.774;2023-06-24T02:13:26;3.30;;;1.90;;
74158;SDS011;62511;47.970;11.774;2023-06-24T02:15:52;5.07;;;2.65;;
74158;SDS011;62511;47.970;11.774;2023-06-24T02:18:18;3.28;;;2.10;;
74158;SDS011;62511;47.970;11.774;2023-06-24T02:20:45;3.70;;;2.28;;
74158;SDS011;62511;47.970;11.774;2023-06-24T02:23:12;4.30;;;2.38;;
74158;SDS011;62511;47.970;11.774;2023-06-24T02:25:38;3.65;;;2.10;;
74158;SDS011;62511;47.970;11.774;2023-06-24T02:28:05;4.45;;;2.08;;
74158;SDS011;62511;47.970;11.774;2023-06-24T02:30:31;3.40;;;2.15;;
74158;SDS011;62511;47.970;11.774;2023-06-24T02:32:58;2.80;;;2.10;;
74158;SDS011;62511;47.970;11.774;2023-06-24T02:35:24;4.10;;;2.28;;
74158;SDS011;62511;47.970;11.774;2023-06-24T02:37:50;3.53;;;2.28;;
74158;SDS011;62511;47.970;11.774;2023-06-24T02:40:16;3.85;;;2.22;;
74158;SDS011;62511;47.970;11.774;2023-06-24T02:42:42;4.70;;;2.30;;
74158;SDS011;62511;47.970;11.774;2023-06-24T02:45:08;4.78;;;2.40;;
74158;SDS011;62511;47.970;11.774;2023-06-24T02:47:34;3.42;;;2.17;;
74158;SDS011;62511;47.970;11.774;2023-06-24T02:50:02;3.45;;;2.05;;
74158;SDS011;62511;47.970;11.774;2023-06-24T02:52:29;3.45;;;2.50;;
74158;SDS011;62511;47.970;11.774;2023-06-24T02:54:56;3.72;;;2.58;;
74158;SDS011;62511;47.970;11.774;2023-06-24T02:57:23;3.25;;;2.35;;
74158;SDS011;62511;47.970;11.774;2023-06-24T02:59:50;3.00;;;2.20;;
74158;SDS011;62511;47.970;11.774;2023-06-24T03:02:16;4.25;;;2.58;;
74158;SDS011;62511;47.970;11.774;2023-06-24T03:04:43;3.25;;;2.33;;
74158;SDS011;62511;47.970;11.774;2023-06-24T03:07:10;3.33;;;2.25;;
74158;SDS011;62511;47.970;11.774;2023-06-24T03:09:36;5.07;;;2.45;;
74158;SDS011;62511;47.970;11.774;2023-06-24T03:12:03;3.22;;;2.45;;
74158;SDS011;62511;47.970;11.774;2023-06-24T03:14:29;3.17;;;2.20;;
74158;SDS011;62511;47.970;11.774;2023-06-24T03:16:55;3.35;;;2.20;;
74158;SDS011;62511;47.970;11.774;2023-06-24T03:19:22;4.90;;;2.40;;
74158;SDS011;62511;47.970;11.774;2023-06-24T03:21:48;2.75;;;2.10;;
74158;SDS011;62511;47.970;11.774;2023-06-24T03:24:14;2.88;;;2.15;;
74158;SDS011;62511;47.970;11.774;2023-06-24T03:26:40;4.00;;;2.60;;
74158;SDS011;62511;47.970;11.774;2023-06-24T03:29:06;3.28;;;2.35;;
74158;SDS011;62511;47.970;11.774;2023-06-24T03:31:33;2.85;;;2.10;;
74158;SDS011;62511;47.970;11.774;2023-06-24T03:33:59;3.17;;;2.25;;
74158;SDS011;62511;47.970;11.774;2023-06-24T03:36:25;4.03;;;2.30;;
74158;SDS011;62511;47.970;11.774;2023-06-24T03:38:51;3.60;;;2.40;;
74158;SDS011;62511;47.970;11.774;2023-06-24T03:41:17;3.03;;;2.17;;
74158;SDS011;62511;47.970;11.774;2023-06-24T03:43:43;3.38;;;1.90;;
74158;SDS011;62511;47.970;11.774;2023-06-24T03:46:10;2.92;;;1.83;;
74158;SDS011;62511;47.970;11.774;2023-06-24T03:48:36;2.92;;;1.90;;
74158;SDS011;62511;47.970;11.774;2023-06-24T03:51:02;3.90;;;2.42;;
74158;SDS011;62511;47.970;11.774;2023-06-24T03:53:28;2.90;;;2.10;;
74158;SDS011;62511;47.970;11.774;2023-06-24T03:55:54;3.63;;;2.13;;
74158;SDS011;62511;47.970;11.774;2023-06-24T03:58:20;4.40;;;2.10;;
74158;SDS011;62511;47.970;11.774;2023-06-24T04:00:46;4.13;;;2.42;;
74158;SDS011;62511;47.970;11.774;2023-06-24T04:03:14;2.60;;;2.28;;
74158;SDS011;62511;47.970;11.774;2023-06-24T04:05:41;2.92;;;1.88;;
74158;SDS011;62511;47.970;11.774;2023-06-24T04:08:07;2.63;;;1.95;;
74158;SDS011;62511;47.970;11.774;2023-06-24T04:10:33;2.88;;;1.95;;
74158;SDS011;62511;47.970;11.774;2023-06-24T04:12:59;3.03;;;2.00;;
74158;SDS011;62511;47.970;11.774;2023-06-24T04:15:25;3.25;;;2.15;;
74158;SDS011;62511;47.970;11.774;2023-06-24T04:17:51;3.63;;;2.22;;
74158;SDS011;62511;47.970;11.774;2023-06-24T04:20:17;3.85;;;2.15;;
74158;SDS011;62511;47.970;11.774;2023-06-24T04:22:43;2.95;;;2.25;;
74158;SDS011;62511;47.970;11.774;2023-06-24T04:25:09;3.33;;;2.28;;
74158;SDS011;62511;47.970;11.774;2023-06-24T04:27:35;3.45;;;2.10;;
74158;SDS011;62511;47.970;11.774;2023-06-24T04:30:03;4.57;;;2.40;;
74158;SDS011;62511;47.970;11.774;2023-06-24T04:32:29;4.40;;;1.95;;
74158;SDS011;62511;47.970;11.774;2023-06-24T04:34:55;3.78;;;1.80;;
74158;SDS011;62511;47.970;11.774;2023-06-24T04:37:21;4.32;;;2.28;;
74158;SDS011;62511;47.970;11.774;2023-06-24T04:39:47;4.47;;;2.10;;
74158;SDS011;62511;47.970;11.774;2023-06-24T04:42:14;2.85;;;1.75;;
74158;SDS011;62511;47.970;11.774;2023-06-24T04:44:40;4.07;;;2.42;;
74158;SDS011;62511;47.970;11.774;2023-06-24T04:47:06;3.50;;;2.13;;
74158;SDS011;62511;47.970;11.774;2023-06-24T04:49:32;4.13;;;2.30;;
74158;SDS011;62511;47.970;11.774;2023-06-24T04:52:01;2.97;;;2.10;;
74158;SDS011;62511;47.970;11.774;2023-06-24T04:54:27;3.85;;;2.30;;
74158;SDS011;62511;47.970;11.774;2023-06-24T04:56:53;3.58;;;2.15;;
74158;SDS011;62511;47.970;11.774;2023-06-24T04:59:21;6.25;;;2.40;;
74158;SDS011;62511;47.970;11.774;2023-06-24T05:01:47;3.75;;;2.20;;
74158;SDS011;62511;47.970;11.774;2023-06-24T05:04:13;3.30;;;2.60;;
74158;SDS011;62511;47.970;11.774;2023-06-24T05:06:39;2.55;;;1.85;;
74158;SDS011;62511;47.970;11.774;2023-06-24T05:09:05;3.47;;;2.13;;
74158;SDS011;62511;47.970;11.774;2023-06-24T05:11:31;3.83;;;2.00;;
74158;SDS011;62511;47.970;11.774;2023-06-24T05:13:59;2.90;;;2.10;;
74158;SDS011;62511;47.970;11.774;2023-06-24T05:16:25;2.92;;;2.10;;
74158;SDS011;62511;47.970;11.774;2023-06-24T05:18:51;4.20;;;2.00;;
74158;SDS011;62511;47.970;11.774;2023-06-24T05:21:17;4.00;;;2.13;;
74158;SDS011;62511;47.970;11.774;2023-06-24T05:23:43;4.72;;;2.40;;
74158;SDS011;62511;47.970;11.774;2023-06-24T05:26:09;3.30;;;2.10;;
74158;SDS011;62511;47.970;11.774;2023-06-24T05:28:36;3.05;;;1.90;;
74158;SDS011;62511;47.970;11.774;2023-06-24T05:31:02;3.15;;;2.10;;
74158;SDS011;62511;47.970;11.774;2023-06-24T05:33:28;3.45;;;2.00;;
74158;SDS011;62511;47.970;11.774;2023-06-24T05:35:54;4.00;;;2.30;;
74158;SDS011;62511;47.970;11.774;2023-06-24T05:38:20;3.00;;;1.80;;
74158;SDS011;62511;47.970;11.774;2023-06-24T05:40:46;3.20;;;2.17;;
74158;SDS011;62511;47.970;11.774;2023-06-24T05:43:12;2.30;;;1.95;;
74158;SDS011;62511;47.970;11.774;2023-06-24T05:45:38;3.40;;;1.95;;
74158;SDS011;62511;47.970;11.774;2023-06-24T05:48:04;3.85;;;1.85;;
74158;SDS011;62511;47.970;11.774;2023-06-24T05:50:30;3.38;;;1.70;;
74158;SDS011;62511;47.970;11.774;2023-06-24T05:52:57;2.08;;;1.70;;
74158;SDS011;62511;47.970;11.774;2023-06-24T05:55:23;2.22;;;1.75;;
74158;SDS011;62511;47.970;11.774;2023-06-24T05:57:49;3.28;;;2.17;;
74158;SDS011;62511;47.970;11.774;2023-06-24T06:00:16;3.55;;;1.80;;
74158;SDS011;62511;47.970;11.774;2023-06-24T06:02:42;3.10;;;1.48;;
74158;SDS011;62511;47.970;11.774;2023-06-24T06:05:08;2.55;;;1.70;;
74158;SDS011;62511;47.970;11.774;2023-06-24T06:07:35;2.30;;;1.63;;
74158;SDS011;62511;47.970;11.774;2023-06-24T06:10:03;2.88;;;1.90;;
74158;SDS011;62511;47.970;11.774;2023-06-24T06:12:30;2.75;;;1.67;;
74158;SDS011;62511;47.970;11.774;2023-06-24T06:14:56;2.85;;;2.10;;
74158;SDS011;62511;47.970;11.774;2023-06-24T06:17:23;2.63;;;1.92;;
74158;SDS011;62511;47.970;11.774;2023-06-24T06:19:49;2.28;;;1.50;;
74158;SDS011;62511;47.970;11.774;2023-06-24T06:22:15;3.05;;;2.03;;
74158;SDS011;62511;47.970;11.774;2023-06-24T06:24:43;2.42;;;1.90;;
74158;SDS011;62511;47.970;11.774;2023-06-24T06:27:09;2.40;;;1.85;;
74158;SDS011;62511;47.970;11.774;2023-06-24T06:29:36;2.22;;;1.70;;
74158;SDS011;62511;47.970;11.774;2023-06-24T06:32:02;1.85;;;1.60;;
74158;SDS011;62511;47.970;11.774;2023-06-24T06:34:28;2.15;;;1.70;;
74158;SDS011;62511;47.970;11.774;2023-06-24T06:36:54;1.95;;;1.45;;
74158;SDS011;62511;47.970;11.774;2023-06-24T06:39:20;4.63;;;1.92;;
74158;SDS011;62511;47.970;11.774;2023-06-24T06:41:46;1.92;;;1.63;;
74158;SDS011;62511;47.970;11.774;2023-06-24T06:44:12;2.72;;;1.77;;
74158;SDS011;62511;47.970;11.774;2023-06-24T06:46:39;2.08;;;1.58;;
74158;SDS011;62511;47.970;11.774;2023-06-24T06:49:05;3.67;;;1.90;;
74158;SDS011;62511;47.970;11.774;2023-06-24T06:51:31;2.63;;;1.75;;
74158;SDS011;62511;47.970;11.774;2023-06-24T06:53:59;2.80;;;1.80;;
74158;SDS011;62511;47.970;11.774;2023-06-24T06:56:25;2.72;;;1.73;;
74158;SDS011;62511;47.970;11.774;2023-06-24T06:58:51;2.13;;;1.55;;
74158;SDS011;62511;47.970;11.774;2023-06-24T07:01:17;4.03;;;1.90;;
74158;SDS011;62511;47.970;11.774;2023-06-24T07:03:44;2.70;;;1.80;;
74158;SDS011;62511;47.970;11.774;2023-06-24T07:06:10;2.75;;;1.98;;
74158;SDS011;62511;47.970;11.774;2023-06-24T07:08:36;4.32;;;2.67;;
74158;SDS011;62511;47.970;11.774;2023-06-24T07:11:02;3.33;;;2.10;;
74158;SDS011;62511;47.970;11.774;2023-06-24T07:13:28;2.55;;;1.63;;
74158;SDS011;62511;47.970;11.774;2023-06-24T07:15:54;2.75;;;1.60;;
74158;SDS011;62511;47.970;11.774;2023-06-24T07:18:20;2.30;;;1.80;;
74158;SDS011;62511;47.970;11.774;2023-06-24T07:20:46;2.05;;;1.75;;
74158;SDS011;62511;47.970;11.774;2023-06-24T07:23:13;2.63;;;1.92;;
74158;SDS011;62511;47.970;11.774;2023-06-24T07:25:39;2.80;;;1.65;;
74158;SDS011;62511;47.970;11.774;2023-06-24T07:28:05;3.33;;;1.80;;
74158;SDS011;62511;47.970;11.774;2023-06-24T07:30:31;3.10;;;2.15;;
74158;SDS011;62511;47.970;11.774;2023-06-24T07:32:57;2.17;;;1.65;;
74158;SDS011;62511;47.970;11.774;2023-06-24T07:35:23;2.70;;;1.67;;
74158;SDS011;62511;47.970;11.774;2023-06-24T07:37:49;1.65;;;1.40;;
74158;SDS011;62511;47.970;11.774;2023-06-24T07:40:15;2.03;;;1.80;;
74158;SDS011;62511;47.970;11.774;2023-06-24T07:42:42;2.38;;;1.90;;
74158;SDS011;62511;47.970;11.774;2023-06-24T07:45:08;3.42;;;1.50;;
74158;SDS011;62511;47.970;11.774;2023-06-24T07:47:34;2.90;;;1.73;;
74158;SDS011;62511;47.970;11.774;2023-06-24T07:50:00;1.60;;;1.50;;
74158;SDS011;62511;47.970;11.774;2023-06-24T07:52:26;1.85;;;1.58;;
74158;SDS011;62511;47.970;11.774;2023-06-24T07:54:52;2.22;;;1.60;;
74158;SDS011;62511;47.970;11.774;2023-06-24T07:57:18;2.88;;;2.10;;
74158;SDS011;62511;47.970;11.774;2023-06-24T07:59:44;3.15;;;1.67;;
74158;SDS011;62511;47.970;11.774;2023-06-24T08:02:11;2.28;;;1.40;;
74158;SDS011;62511;47.970;11.774;2023-06-24T08:04:38;2.67;;;1.75;;
74158;SDS011;62511;47.970;11.774;2023-06-24T08:07:04;1.80;;;1.58;;
74158;SDS011;62511;47.970;11.774;2023-06-24T08:09:30;2.83;;;1.40;;
74158;SDS011;62511;47.970;11.774;2023-06-24T08:11:56;2.35;;;1.70;;
74158;SDS011;62511;47.970;11.774;2023-06-24T08:14:22;2.38;;;1.77;;
74158;SDS011;62511;47.970;11.774;2023-06-24T08:16:48;2.33;;;1.60;;
74158;SDS011;62511;47.970;11.774;2023-06-24T08:19:14;2.22;;;1.60;;
74158;SDS011;62511;47.970;11.774;2023-06-24T08:21:40;2.42;;;1.50;;
74158;SDS011;62511;47.970;11.774;2023-06-24T08:24:06;3.38;;;2.15;;
74158;SDS011;62511;47.970;11.774;2023-06-24T08:26:32;2.58;;;2.00;;
74158;SDS011;62511;47.970;11.774;2023-06-24T08:28:58;2.78;;;1.80;;
74158;SDS011;62511;47.970;11.774;2023-06-24T08:31:25;2.15;;;1.80;;
74158;SDS011;62511;47.970;11.774;2023-06-24T08:33:54;2.55;;;1.83;;
74158;SDS011;62511;47.970;11.774;2023-06-24T08:36:23;2.47;;;1.65;;
74158;SDS011;62511;47.970;11.774;2023-06-24T08:38:49;3.75;;;1.90;;
74158;SDS011;62511;47.970;11.774;2023-06-24T08:41:15;1.70;;;1.58;;
74158;SDS011;62511;47.970;11.774;2023-06-24T08:43:41;2.03;;;1.60;;
74158;SDS011;62511;47.970;11.774;2023-06-24T08:46:08;2.45;;;1.70;;
74158;SDS011;62511;47.970;11.774;2023-06-24T08:48:35;3.90;;;2.03;;
74158;SDS011;62511;47.970;11.774;2023-06-24T08:51:05;3.00;;;1.80;;
74158;SDS011;62511;47.970;11.774;2023-06-24T08:53:33;2.05;;;1.83;;
74158;SDS011;62511;47.970;11.774;2023-06-24T08:56:00;3.13;;;1.90;;
74158;SDS011;62511;47.970;11.774;2023-06-24T08:58:26;2.60;;;2.00;;
74158;SDS011;62511;47.970;11.774;2023-06-24T09:00:52;2.63;;;1.70;;
74158;SDS011;62511;47.970;11.774;2023-06-24T09:03:18;2.85;;;1.45;;
74158;SDS011;62511;47.970;11.774;2023-06-24T09:05:44;1.75;;;1.65;;
74158;SDS011;62511;47.970;11.774;2023-06-24T09:08:13;1.90;;;1.70;;
74158;SDS011;62511;47.970;11.774;2023-06-24T09:10:40;1.85;;;1.58;;
74158;SDS011;62511;47.970;11.774;2023-06-24T09:13:07;2.15;;;1.70;;
74158;SDS011;62511;47.970;11.774;2023-06-24T09:15:34;1.75;;;1.52;;
74158;SDS011;62511;47.970;11.774;2023-06-24T09:18:00;1.90;;;1.60;;
74158;SDS011;62511;47.970;11.774;2023-06-24T09:20:27;2.40;;;1.80;;
74158;SDS011;62511;47.970;11.774;2023-06-24T09:23:00;3.40;;;1.83;;
74158;SDS011;62511;47.970;11.774;2023-06-24T09:27:52;2.70;;;1.80;;
74158;SDS011;62511;47.970;11.774;2023-06-24T09:30:23;3.13;;;1.63;;
74158;SDS011;62511;47.970;11.774;2023-06-24T09:32:50;2.13;;;1.80;;
74158;SDS011;62511;47.970;11.774;2023-06-24T09:35:20;2.10;;;1.70;;
74158;SDS011;62511;47.970;11.774;2023-06-24T09:37:52;2.15;;;1.77;;
74158;SDS011;62511;47.970;11.774;2023-06-24T09:40:19;2.53;;;2.15;;
74158;SDS011;62511;47.970;11.774;2023-06-24T09:42:48;2.25;;;2.00;;
74158;SDS011;62511;47.970;11.774;2023-06-24T09:45:17;2.53;;;1.85;;
74158;SDS011;62511;47.970;11.774;2023-06-24T09:47:44;2.05;;;1.77;;
74158;SDS011;62511;47.970;11.774;2023-06-24T09:50:10;2.13;;;1.83;;
74158;SDS011;62511;47.970;11.774;2023-06-24T09:52:36;2.45;;;1.85;;
74158;SDS011;62511;47.970;11.774;2023-06-24T09:57:29;2.92;;;2.28;;
74158;SDS011;62511;47.970;11.774;2023-06-24T09:59:57;2.05;;;1.70;;
74158;SDS011;62511;47.970;11.774;2023-06-24T10:02:23;2.88;;;1.88;;
74158;SDS011;62511;47.970;11.774;2023-06-24T10:04:50;2.90;;;1.85;;
74158;SDS011;62511;47.970;11.774;2023-06-24T10:07:17;4.40;;;2.30;;
74158;SDS011;62511;47.970;11.774;2023-06-24T10:09:43;2.40;;;2.17;;
74158;SDS011;62511;47.970;11.774;2023-06-24T10:12:10;2.97;;;2.30;;
74158;SDS011;62511;47.970;11.774;2023-06-24T10:14:36;2.78;;;1.90;;
74158;SDS011;62511;47.970;11.774;2023-06-24T10:17:02;2.78;;;2.25;;
74158;SDS011;62511;47.970;11.774;2023-06-24T10:19:29;2.92;;;2.05;;
74158;SDS011;62511;47.970;11.774;2023-06-24T10:21:58;3.60;;;2.10;;
74158;SDS011;62511;47.970;11.774;2023-06-24T10:24:28;2.20;;;2.00;;
74158;SDS011;62511;47.970;11.774;2023-06-24T10:26:54;3.00;;;2.30;;
74158;SDS011;62511;47.970;11.774;2023-06-24T10:29:30;2.67;;;1.92;;
74158;SDS011;62511;47.970;11.774;2023-06-24T10:31:56;2.58;;;2.17;;
74158;SDS011;62511;47.970;11.774;2023-06-24T10:34:30;2.85;;;2.00;;
74158;SDS011;62511;47.970;11.774;2023-06-24T10:37:01;2.75;;;1.88;;
74158;SDS011;62511;47.970;11.774;2023-06-24T10:44:47;2.97;;;2.05;;
74158;SDS011;62511;47.970;11.774;2023-06-24T10:47:14;3.03;;;2.17;;
74158;SDS011;62511;47.970;11.774;2023-06-24T10:49:40;4.25;;;2.42;;
74158;SDS011;62511;47.970;11.774;2023-06-24T10:52:12;3.13;;;2.25;;
74158;SDS011;62511;47.970;11.774;2023-06-24T10:54:38;2.78;;;2.25;;
74158;SDS011;62511;47.970;11.774;2023-06-24T10:57:05;2.67;;;2.28;;
74158;SDS011;62511;47.970;11.774;2023-06-24T10:59:34;4.65;;;2.58;;
74158;SDS011;62511;47.970;11.774;2023-06-24T11:02:00;2.72;;;2.10;;
74158;SDS011;62511;47.970;11.774;2023-06-24T11:04:26;3.60;;;2.15;;
74158;SDS011;62511;47.970;11.774;2023-06-24T11:06:59;4.18;;;2.55;;
74158;SDS011;62511;47.970;11.774;2023-06-24T11:09:26;4.22;;;2.05;;
74158;SDS011;62511;47.970;11.774;2023-06-24T11:11:52;2.63;;;2.00;;
74158;SDS011;62511;47.970;11.774;2023-06-24T11:14:21;2.60;;;2.20;;
74158;SDS011;62511;47.970;11.774;2023-06-24T11:16:47;2.92;;;2.10;;
74158;SDS011;62511;47.970;11.774;2023-06-24T11:19:13;3.92;;;2.20;;
74158;SDS011;62511;47.970;11.774;2023-06-24T11:21:39;4.10;;;2.20;;
74158;SDS011;62511;47.970;11.774;2023-06-24T11:24:05;2.92;;;2.22;;
74158;SDS011;62511;47.970;11.774;2023-06-24T11:26:32;2.75;;;1.77;;
74158;SDS011;62511;47.970;11.774;2023-06-24T11:28:58;2.92;;;2.13;;
74158;SDS011;62511;47.970;11.774;2023-06-24T11:31:27;3.35;;;2.42;;
74158;SDS011;62511;47.970;11.774;2023-06-24T11:33:53;2.88;;;2.60;;
74158;SDS011;62511;47.970;11.774;2023-06-24T11:36:20;3.15;;;2.42;;
74158;SDS011;62511;47.970;11.774;2023-06-24T11:38:46;3.88;;;2.50;;
74158;SDS011;62511;47.970;11.774;2023-06-24T11:41:14;4.57;;;2.67;;
74158;SDS011;62511;47.970;11.774;2023-06-24T11:43:44;3.65;;;2.42;;
74158;SDS011;62511;47.970;11.774;2023-06-24T11:46:10;2.63;;;2.00;;
74158;SDS011;62511;47.970;11.774;2023-06-24T11:48:39;4.18;;;2.47;;
74158;SDS011;62511;47.970;11.774;2023-06-24T11:51:12;3.35;;;2.42;;
74158;SDS011;62511;47.970;11.774;2023-06-24T11:53:41;4.28;;;2.65;;
74158;SDS011;62511;47.970;11.774;2023-06-24T11:58:37;2.58;;;2.10;;
74158;SDS011;62511;47.970;11.774;2023-06-24T12:01:03;3.28;;;2.40;;
74158;SDS011;62511;47.970;11.774;2023-06-24T12:03:29;3.58;;;2.28;;
74158;SDS011;62511;47.970;11.774;2023-06-24T12:05:57;2.97;;;2.15;;
74158;SDS011;62511;47.970;11.774;2023-06-24T12:08:23;2.70;;;2.10;;
74158;SDS011;62511;47.970;11.774;2023-06-24T12:10:49;4.88;;;2.20;;
74158;SDS011;62511;47.970;11.774;2023-06-24T12:13:15;3.25;;;2.25;;
74158;SDS011;62511;47.970;11.774;2023-06-24T12:15:41;3.80;;;2.55;;
74158;SDS011;62511;47.970;11.774;2023-06-24T12:18:07;2.20;;;1.92;;
74158;SDS011;62511;47.970;11.774;2023-06-24T12:20:33;3.05;;;2.17;;
74158;SDS011;62511;47.970;11.774;2023-06-24T12:23:01;2.70;;;2.20;;
74158;SDS011;62511;47.970;11.774;2023-06-24T12:25:28;4.93;;;2.42;;
74158;SDS011;62511;47.970;11.774;2023-06-24T12:27:54;2.75;;;2.42;;
74158;SDS011;62511;47.970;11.774;2023-06-24T12:30:20;4.60;;;2.70;;
74158;SDS011;62511;47.970;11.774;2023-06-24T12:32:49;4.57;;;2.63;;
74158;SDS011;62511;47.970;11.774;2023-06-24T12:35:15;4.50;;;2.17;;
74158;SDS011;62511;47.970;11.774;2023-06-24T12:37:41;5.05;;;2.33;;
74158;SDS011;62511;47.970;11.774;2023-06-24T12:40:07;2.90;;;2.28;;
74158;SDS011;62511;47.970;11.774;2023-06-24T12:42:33;3.28;;;2.60;;
74158;SDS011;62511;47.970;11.774;2023-06-24T12:45:00;3.00;;;2.17;;
74158;SDS011;62511;47.970;11.774;2023-06-24T12:47:26;3.45;;;2.25;;
74158;SDS011;62511;47.970;11.774;2023-06-24T12:49:52;3.08;;;2.40;;
74158;SDS011;62511;47.970;11.774;2023-06-24T12:52:18;4.45;;;2.55;;
74158;SDS011;62511;47.970;11.774;2023-06-24T12:54:44;4.15;;;2.13;;
74158;SDS011;62511;47.970;11.774;2023-06-24T12:57:10;3.20;;;2.38;;
74158;SDS011;62511;47.970;11.774;2023-06-24T12:59:36;3.25;;;2.40;;
74158;SDS011;62511;47.970;11.774;2023-06-24T13:02:03;3.53;;;2.20;;
74158;SDS011;62511;47.970;11.774;2023-06-24T13:04:29;5.03;;;2.40;;
74158;SDS011;62511;47.970;11.774;2023-06-24T13:06:55;3.40;;;2.25;;
74158;SDS011;62511;47.970;11.774;2023-06-24T13:09:21;3.00;;;2.00;;
74158;SDS011;62511;47.970;11.774;2023-06-24T13:11:47;2.80;;;2.10;;
74158;SDS011;62511;47.970;11.774;2023-06-24T13:14:14;2.85;;;2.08;;
74158;SDS011;62511;47.970;11.774;2023-06-24T13:16:40;3.08;;;2.10;;
74158;SDS011;62511;47.970;11.774;2023-06-24T13:19:06;2.25;;;1.83;;
74158;SDS011;62511;47.970;11.774;2023-06-24T13:21:32;5.60;;;2.08;;
74158;SDS011;62511;47.970;11.774;2023-06-24T13:23:58;6.57;;;2.25;;
74158;SDS011;62511;47.970;11.774;2023-06-24T13:26:24;2.80;;;2.25;;
74158;SDS011;62511;47.970;11.774;2023-06-24T13:28:50;3.03;;;2.03;;
74158;SDS011;62511;47.970;11.774;2023-06-24T13:31:17;3.30;;;2.33;;
74158;SDS011;62511;47.970;11.774;2023-06-24T13:33:43;2.60;;;2.05;;
74158;SDS011;62511;47.970;11.774;2023-06-24T13:36:11;3.33;;;2.40;;
74158;SDS011;62511;47.970;11.774;2023-06-24T13:38:38;3.22;;;2.30;;
74158;SDS011;62511;47.970;11.774;2023-06-24T13:41:04;3.20;;;2.40;;
74158;SDS011;62511;47.970;11.774;2023-06-24T13:43:30;3.28;;;2.15;;
74158;SDS011;62511;47.970;11.774;2023-06-24T13:45:56;3.60;;;2.13;;
74158;SDS011;62511;47.970;11.774;2023-06-24T13:48:24;3.15;;;2.05;;
74158;SDS011;62511;47.970;11.774;2023-06-24T13:50:50;3.05;;;1.92;;
74158;SDS011;62511;47.970;11.774;2023-06-24T13:53:16;2.60;;;1.88;;
74158;SDS011;62511;47.970;11.774;2023-06-24T13:55:42;2.92;;;1.92;;
74158;SDS011;62511;47.970;11.774;2023-06-24T13:58:08;3.75;;;2.17;;
74158;SDS011;62511;47.970;11.774;2023-06-24T14:00:34;3.20;;;2.30;;
74158;SDS011;62511;47.970;11.774;2023-06-24T14:03:00;3.33;;;2.00;;
74158;SDS011;62511;47.970;11.774;2023-06-24T14:05:26;2.70;;;2.20;;
74158;SDS011;62511;47.970;11.774;2023-06-24T14:07:52;3.55;;;2.38;;
74158;SDS011;62511;47.970;11.774;2023-06-24T14:10:18;3.55;;;2.30;;
74158;SDS011;62511;47.970;11.774;2023-06-24T14:12:44;2.67;;;2.10;;
74158;SDS011;62511;47.970;11.774;2023-06-24T14:15:10;4.22;;;2.28;;
74158;SDS011;62511;47.970;11.774;2023-06-24T14:17:36;3.03;;;2.10;;
74158;SDS011;62511;47.970;11.774;2023-06-24T14:20:02;2.45;;;2.13;;
74158;SDS011;62511;47.970;11.774;2023-06-24T14:22:28;4.65;;;2.17;;
74158;SDS011;62511;47.970;11.774;2023-06-24T14:24:54;3.03;;;2.13;;
74158;SDS011;62511;47.970;11.774;2023-06-24T14:27:20;3.05;;;2.70;;
74158;SDS011;62511;47.970;11.774;2023-06-24T14:29:46;3.85;;;2.70;;
74158;SDS011;62511;47.970;11.774;2023-06-24T14:32:12;3.13;;;2.17;;
74158;SDS011;62511;47.970;11.774;2023-06-24T14:34:38;3.47;;;1.80;;
74158;SDS011;62511;47.970;11.774;2023-06-24T14:37:04;4.07;;;2.40;;
74158;SDS011;62511;47.970;11.774;2023-06-24T14:39:30;2.40;;;1.95;;
74158;SDS011;62511;47.970;11.774;2023-06-24T14:41:56;3.35;;;2.17;;
74158;SDS011;62511;47.970;11.774;2023-06-24T14:44:22;3.17;;;2.38;;
74158;SDS011;62511;47.970;11.774;2023-06-24T14:46:48;3.42;;;2.20;;
74158;SDS011;62511;47.970;11.774;2023-06-24T14:49:14;2.72;;;1.95;;
74158;SDS011;62511;47.970;11.774;2023-06-24T14:51:42;3.35;;;2.25;;
74158;SDS011;62511;47.970;11.774;2023-06-24T14:54:08;3.45;;;2.22;;
74158;SDS011;62511;47.970;11.774;2023-06-24T14:56:34;2.67;;;2.10;;
74158;SDS011;62511;47.970;11.774;2023-06-24T14:59:00;4.45;;;2.83;;
74158;SDS011;62511;47.970;11.774;2023-06-24T15:01:26;4.72;;;2.40;;